sensor_id;sensor_type;location;lat;lon;timestamp;P1;durP1;ratioP1;P2;durP2;ratioP2
10979;SDS011;5543;51.734;8.744;2023-02-13T00:01:05;3.95;;;2.78;;
10979;SDS011;5543;51.734;8.744;2023-02-13T00:03:33;4.80;;;2.83;;
10979;SDS011;5543;51.734;8.744;2023-02-13T00:06:02;7.63;;;3.42;;
10979;SDS011;5543;51.734;8.744;2023-02-13T00:08:30;5.50;;;3.05;;
10979;SDS011;5543;51.734;8.744;2023-02-13T00:10:58;5.28;;;2.85;;
10979;SDS011;5543;51.734;8.744;2023-02-13T00:13:26;6.88;;;3.67;;
10979;SDS011;5543;51.734;8.744;2023-02-13T00:15:55;4.40;;;2.17;;
10979;SDS011;5543;51.734;8.744;2023-02-13T00:18:25;5.13;;;3.60;;
10979;SDS011;5543;51.734;8.744;2023-02-13T00:20:57;6.05;;;3.22;;
10979;SDS011;5543;51.734;8.744;2023-02-13T00:23:27;3.60;;;2.33;;
10979;SDS011;5543;51.734;8.744;2023-02-13T00:25:57;12.40;;;3.45;;
10979;SDS011;5543;51.734;8.744;2023-02-13T00:28:26;6.93;;;3.33;;
10979;SDS011;5543;51.734;8.744;2023-02-13T00:31:00;4.95;;;2.85;;
10979;SDS011;5543;51.734;8.744;2023-02-13T00:33:31;6.47;;;3.75;;
10979;SDS011;5543;51.734;8.744;2023-02-13T00:36:03;5.65;;;3.05;;
10979;SDS011;5543;51.734;8.744;2023-02-13T00:38:32;6.10;;;3.15;;
10979;SDS011;5543;51.734;8.744;2023-02-13T00:41:00;6.10;;;3.25;;
10979;SDS011;5543;51.734;8.744;2023-02-13T00:43:29;4.90;;;3.28;;
10979;SDS011;5543;51.734;8.744;2023-02-13T00:45:57;7.75;;;3.47;;
10979;SDS011;5543;51.734;8.744;2023-02-13T00:48:26;7.00;;;3.75;;
10979;SDS011;5543;51.734;8.744;2023-02-13T00:50:57;5.82;;;3.00;;
10979;SDS011;5543;51.734;8.744;2023-02-13T00:53:25;8.38;;;3.58;;
10979;SDS011;5543;51.734;8.744;2023-02-13T00:55:54;6.32;;;4.10;;
10979;SDS011;5543;51.734;8.744;2023-02-13T00:58:22;5.63;;;3.08;;
10979;SDS011;5543;51.734;8.744;2023-02-13T01:00:50;7.22;;;3.50;;
10979;SDS011;5543;51.734;8.744;2023-02-13T01:03:20;9.25;;;4.32;;
10979;SDS011;5543;51.734;8.744;2023-02-13T01:05:49;7.57;;;4.13;;
10979;SDS011;5543;51.734;8.744;2023-02-13T01:08:19;8.73;;;5.03;;
10979;SDS011;5543;51.734;8.744;2023-02-13T01:10:47;7.18;;;4.43;;
10979;SDS011;5543;51.734;8.744;2023-02-13T01:13:16;9.38;;;4.00;;
10979;SDS011;5543;51.734;8.744;2023-02-13T01:15:45;7.55;;;4.38;;
10979;SDS011;5543;51.734;8.744;2023-02-13T01:18:14;13.98;;;4.05;;
10979;SDS011;5543;51.734;8.744;2023-02-13T01:20:43;6.85;;;3.63;;
10979;SDS011;5543;51.734;8.744;2023-02-13T01:23:11;7.80;;;3.65;;
10979;SDS011;5543;51.734;8.744;2023-02-13T01:25:41;7.95;;;4.22;;
10979;SDS011;5543;51.734;8.744;2023-02-13T01:28:09;8.70;;;3.92;;
10979;SDS011;5543;51.734;8.744;2023-02-13T01:30:37;8.90;;;4.00;;
10979;SDS011;5543;51.734;8.744;2023-02-13T01:33:06;8.43;;;4.25;;
10979;SDS011;5543;51.734;8.744;2023-02-13T01:35:34;9.30;;;4.45;;
10979;SDS011;5543;51.734;8.744;2023-02-13T01:38:05;9.15;;;3.88;;
10979;SDS011;5543;51.734;8.744;2023-02-13T01:40:33;7.28;;;3.92;;
10979;SDS011;5543;51.734;8.744;2023-02-13T01:43:02;8.05;;;4.15;;
10979;SDS011;5543;51.734;8.744;2023-02-13T01:45:32;11.13;;;3.90;;
10979;SDS011;5543;51.734;8.744;2023-02-13T01:48:01;7.70;;;3.47;;
10979;SDS011;5543;51.734;8.744;2023-02-13T01:50:32;6.35;;;3.90;;
10979;SDS011;5543;51.734;8.744;2023-02-13T01:53:06;7.95;;;3.85;;
10979;SDS011;5543;51.734;8.744;2023-02-13T01:55:39;6.32;;;4.05;;
10979;SDS011;5543;51.734;8.744;2023-02-13T01:58:15;5.28;;;2.78;;
10979;SDS011;5543;51.734;8.744;2023-02-13T02:00:47;6.85;;;3.78;;
10979;SDS011;5543;51.734;8.744;2023-02-13T02:03:16;5.25;;;2.75;;
10979;SDS011;5543;51.734;8.744;2023-02-13T02:05:48;6.80;;;3.83;;
10979;SDS011;5543;51.734;8.744;2023-02-13T02:08:18;7.03;;;3.30;;
10979;SDS011;5543;51.734;8.744;2023-02-13T02:10:46;7.13;;;3.20;;
10979;SDS011;5543;51.734;8.744;2023-02-13T02:13:18;9.88;;;3.85;;
10979;SDS011;5543;51.734;8.744;2023-02-13T02:15:47;5.95;;;3.20;;
10979;SDS011;5543;51.734;8.744;2023-02-13T02:18:17;4.68;;;2.05;;
10979;SDS011;5543;51.734;8.744;2023-02-13T02:20:56;7.40;;;2.80;;
10979;SDS011;5543;51.734;8.744;2023-02-13T02:26:49;6.28;;;2.45;;
10979;SDS011;5543;51.734;8.744;2023-02-13T02:29:57;3.55;;;2.55;;
10979;SDS011;5543;51.734;8.744;2023-02-13T02:32:48;15.07;;;3.58;;
10979;SDS011;5543;51.734;8.744;2023-02-13T02:35:30;3.88;;;2.05;;
10979;SDS011;5543;51.734;8.744;2023-02-13T02:38:11;4.70;;;2.65;;
10979;SDS011;5543;51.734;8.744;2023-02-13T02:40:54;5.32;;;2.88;;
10979;SDS011;5543;51.734;8.744;2023-02-13T02:43:29;4.25;;;2.33;;
10979;SDS011;5543;51.734;8.744;2023-02-13T02:46:10;3.28;;;2.25;;
10979;SDS011;5543;51.734;8.744;2023-02-13T02:48:46;4.85;;;3.03;;
10979;SDS011;5543;51.734;8.744;2023-02-13T02:51:54;5.90;;;2.75;;
10979;SDS011;5543;51.734;8.744;2023-02-13T02:54:30;3.25;;;2.47;;
10979;SDS011;5543;51.734;8.744;2023-02-13T02:57:30;4.03;;;2.25;;
10979;SDS011;5543;51.734;8.744;2023-02-13T03:00:14;2.58;;;1.85;;
10979;SDS011;5543;51.734;8.744;2023-02-13T03:03:02;5.32;;;2.03;;
10979;SDS011;5543;51.734;8.744;2023-02-13T03:05:54;4.72;;;2.58;;
10979;SDS011;5543;51.734;8.744;2023-02-13T03:08:44;4.60;;;2.47;;
10979;SDS011;5543;51.734;8.744;2023-02-13T03:11:36;5.30;;;2.22;;
10979;SDS011;5543;51.734;8.744;2023-02-13T03:14:23;8.77;;;2.47;;
10979;SDS011;5543;51.734;8.744;2023-02-13T03:16:53;7.00;;;3.47;;
10979;SDS011;5543;51.734;8.744;2023-02-13T03:19:43;4.57;;;2.40;;
10979;SDS011;5543;51.734;8.744;2023-02-13T03:22:40;3.83;;;2.22;;
10979;SDS011;5543;51.734;8.744;2023-02-13T03:25:16;4.45;;;2.38;;
10979;SDS011;5543;51.734;8.744;2023-02-13T03:27:56;3.83;;;1.77;;
10979;SDS011;5543;51.734;8.744;2023-02-13T03:30:47;4.43;;;2.33;;
10979;SDS011;5543;51.734;8.744;2023-02-13T03:33:28;5.10;;;2.22;;
10979;SDS011;5543;51.734;8.744;2023-02-13T03:36:16;4.95;;;2.67;;
10979;SDS011;5543;51.734;8.744;2023-02-13T03:39:14;3.67;;;1.77;;
10979;SDS011;5543;51.734;8.744;2023-02-13T03:41:48;4.47;;;2.40;;
10979;SDS011;5543;51.734;8.744;2023-02-13T03:44:22;4.93;;;2.33;;
10979;SDS011;5543;51.734;8.744;2023-02-13T03:46:57;7.20;;;2.78;;
10979;SDS011;5543;51.734;8.744;2023-02-13T03:49:28;3.80;;;2.33;;
10979;SDS011;5543;51.734;8.744;2023-02-13T03:52:17;4.45;;;2.65;;
10979;SDS011;5543;51.734;8.744;2023-02-13T03:54:53;4.47;;;2.08;;
10979;SDS011;5543;51.734;8.744;2023-02-13T03:57:42;5.07;;;2.30;;
10979;SDS011;5543;51.734;8.744;2023-02-13T04:00:36;5.57;;;2.35;;
10979;SDS011;5543;51.734;8.744;2023-02-13T04:03:10;6.70;;;2.58;;
10979;SDS011;5543;51.734;8.744;2023-02-13T04:05:43;4.40;;;2.17;;
10979;SDS011;5543;51.734;8.744;2023-02-13T04:08:16;8.68;;;3.28;;
10979;SDS011;5543;51.734;8.744;2023-02-13T04:10:48;4.38;;;1.90;;
10979;SDS011;5543;51.734;8.744;2023-02-13T04:13:23;2.63;;;1.92;;
10979;SDS011;5543;51.734;8.744;2023-02-13T04:15:55;6.70;;;3.22;;
10979;SDS011;5543;51.734;8.744;2023-02-13T04:18:28;5.07;;;3.17;;
10979;SDS011;5543;51.734;8.744;2023-02-13T04:21:00;4.53;;;2.10;;
10979;SDS011;5543;51.734;8.744;2023-02-13T04:23:28;2.63;;;1.92;;
10979;SDS011;5543;51.734;8.744;2023-02-13T04:25:58;3.42;;;1.75;;
10979;SDS011;5543;51.734;8.744;2023-02-13T04:28:28;2.15;;;1.60;;
10979;SDS011;5543;51.734;8.744;2023-02-13T04:30:58;3.95;;;2.17;;
10979;SDS011;5543;51.734;8.744;2023-02-13T04:33:27;2.90;;;1.70;;
10979;SDS011;5543;51.734;8.744;2023-02-13T04:35:55;3.55;;;1.30;;
10979;SDS011;5543;51.734;8.744;2023-02-13T04:38:23;3.03;;;1.20;;
10979;SDS011;5543;51.734;8.744;2023-02-13T04:40:51;2.25;;;1.08;;
10979;SDS011;5543;51.734;8.744;2023-02-13T04:43:21;3.53;;;1.67;;
10979;SDS011;5543;51.734;8.744;2023-02-13T04:45:50;2.50;;;1.40;;
10979;SDS011;5543;51.734;8.744;2023-02-13T04:48:19;2.17;;;1.30;;
10979;SDS011;5543;51.734;8.744;2023-02-13T04:50:47;2.25;;;0.95;;
10979;SDS011;5543;51.734;8.744;2023-02-13T04:53:15;3.00;;;1.40;;
10979;SDS011;5543;51.734;8.744;2023-02-13T04:55:43;2.22;;;1.10;;
10979;SDS011;5543;51.734;8.744;2023-02-13T04:58:11;2.22;;;1.17;;
10979;SDS011;5543;51.734;8.744;2023-02-13T05:00:41;2.88;;;1.58;;
10979;SDS011;5543;51.734;8.744;2023-02-13T05:03:09;1.30;;;1.17;;
10979;SDS011;5543;51.734;8.744;2023-02-13T05:05:39;2.10;;;1.40;;
10979;SDS011;5543;51.734;8.744;2023-02-13T05:08:07;3.55;;;1.83;;
10979;SDS011;5543;51.734;8.744;2023-02-13T05:10:36;2.38;;;1.13;;
10979;SDS011;5543;51.734;8.744;2023-02-13T05:13:04;1.58;;;1.13;;
10979;SDS011;5543;51.734;8.744;2023-02-13T05:15:32;5.38;;;1.58;;
10979;SDS011;5543;51.734;8.744;2023-02-13T05:18:02;2.95;;;1.10;;
10979;SDS011;5543;51.734;8.744;2023-02-13T05:20:30;2.92;;;1.05;;
10979;SDS011;5543;51.734;8.744;2023-02-13T05:22:58;1.92;;;1.40;;
10979;SDS011;5543;51.734;8.744;2023-02-13T05:25:44;1.65;;;1.30;;
10979;SDS011;5543;51.734;8.744;2023-02-13T05:28:12;1.90;;;1.00;;
10979;SDS011;5543;51.734;8.744;2023-02-13T05:30:54;1.42;;;1.25;;
10979;SDS011;5543;51.734;8.744;2023-02-13T05:33:25;1.73;;;1.63;;
10979;SDS011;5543;51.734;8.744;2023-02-13T05:35:53;2.72;;;1.40;;
10979;SDS011;5543;51.734;8.744;2023-02-13T05:38:21;2.13;;;0.90;;
10979;SDS011;5543;51.734;8.744;2023-02-13T05:40:49;1.48;;;1.35;;
10979;SDS011;5543;51.734;8.744;2023-02-13T05:43:18;1.85;;;0.98;;
10979;SDS011;5543;51.734;8.744;2023-02-13T05:45:46;1.48;;;1.00;;
10979;SDS011;5543;51.734;8.744;2023-02-13T05:48:14;1.88;;;1.20;;
10979;SDS011;5543;51.734;8.744;2023-02-13T05:50:46;2.30;;;1.30;;
10979;SDS011;5543;51.734;8.744;2023-02-13T05:53:14;5.60;;;1.60;;
10979;SDS011;5543;51.734;8.744;2023-02-13T05:55:42;1.75;;;1.40;;
10979;SDS011;5543;51.734;8.744;2023-02-13T05:58:10;2.33;;;1.60;;
10979;SDS011;5543;51.734;8.744;2023-02-13T06:00:38;1.90;;;1.35;;
10979;SDS011;5543;51.734;8.744;2023-02-13T06:03:06;1.17;;;1.08;;
10979;SDS011;5543;51.734;8.744;2023-02-13T06:05:34;3.55;;;1.42;;
10979;SDS011;5543;51.734;8.744;2023-02-13T06:08:04;0.77;;;0.77;;
10979;SDS011;5543;51.734;8.744;2023-02-13T06:10:32;2.30;;;1.00;;
10979;SDS011;5543;51.734;8.744;2023-02-13T06:13:00;1.95;;;1.00;;
10979;SDS011;5543;51.734;8.744;2023-02-13T06:15:28;0.98;;;0.80;;
10979;SDS011;5543;51.734;8.744;2023-02-13T06:17:56;1.10;;;0.82;;
10979;SDS011;5543;51.734;8.744;2023-02-13T06:20:24;1.55;;;1.20;;
10979;SDS011;5543;51.734;8.744;2023-02-13T06:22:52;1.92;;;1.00;;
10979;SDS011;5543;51.734;8.744;2023-02-13T06:25:22;0.93;;;0.80;;
10979;SDS011;5543;51.734;8.744;2023-02-13T06:27:50;1.02;;;0.77;;
10979;SDS011;5543;51.734;8.744;2023-02-13T06:30:18;2.30;;;1.25;;
10979;SDS011;5543;51.734;8.744;2023-02-13T06:32:47;0.73;;;0.70;;
10979;SDS011;5543;51.734;8.744;2023-02-13T06:35:15;0.80;;;0.60;;
10979;SDS011;5543;51.734;8.744;2023-02-13T06:37:44;3.05;;;1.90;;
10979;SDS011;5543;51.734;8.744;2023-02-13T06:40:12;1.88;;;0.80;;
10979;SDS011;5543;51.734;8.744;2023-02-13T06:42:43;1.63;;;1.27;;
10979;SDS011;5543;51.734;8.744;2023-02-13T06:45:12;2.63;;;1.30;;
10979;SDS011;5543;51.734;8.744;2023-02-13T06:47:41;1.48;;;0.85;;
10979;SDS011;5543;51.734;8.744;2023-02-13T06:50:10;1.63;;;0.98;;
10979;SDS011;5543;51.734;8.744;2023-02-13T06:52:44;1.17;;;0.88;;
10979;SDS011;5543;51.734;8.744;2023-02-13T06:55:13;0.88;;;0.80;;
10979;SDS011;5543;51.734;8.744;2023-02-13T06:57:43;1.63;;;1.10;;
10979;SDS011;5543;51.734;8.744;2023-02-13T07:00:12;1.13;;;0.80;;
10979;SDS011;5543;51.734;8.744;2023-02-13T07:02:42;2.15;;;1.20;;
10979;SDS011;5543;51.734;8.744;2023-02-13T07:05:12;1.70;;;1.33;;
10979;SDS011;5543;51.734;8.744;2023-02-13T07:07:41;1.83;;;0.88;;
10979;SDS011;5543;51.734;8.744;2023-02-13T07:10:10;1.30;;;1.20;;
10979;SDS011;5543;51.734;8.744;2023-02-13T07:12:39;2.38;;;1.48;;
10979;SDS011;5543;51.734;8.744;2023-02-13T07:15:11;1.23;;;1.10;;
10979;SDS011;5543;51.734;8.744;2023-02-13T07:17:39;6.40;;;3.03;;
10979;SDS011;5543;51.734;8.744;2023-02-13T07:20:08;3.92;;;1.50;;
10979;SDS011;5543;51.734;8.744;2023-02-13T07:22:37;12.00;;;5.18;;
10979;SDS011;5543;51.734;8.744;2023-02-13T07:25:07;2.00;;;1.20;;
10979;SDS011;5543;51.734;8.744;2023-02-13T07:27:35;2.08;;;1.30;;
10979;SDS011;5543;51.734;8.744;2023-02-13T07:30:04;1.88;;;0.95;;
10979;SDS011;5543;51.734;8.744;2023-02-13T07:32:34;2.53;;;1.65;;
10979;SDS011;5543;51.734;8.744;2023-02-13T07:35:03;2.40;;;1.20;;
10979;SDS011;5543;51.734;8.744;2023-02-13T07:37:32;1.70;;;1.30;;
10979;SDS011;5543;51.734;8.744;2023-02-13T07:40:00;0.80;;;0.80;;
10979;SDS011;5543;51.734;8.744;2023-02-13T07:42:31;2.92;;;1.27;;
10979;SDS011;5543;51.734;8.744;2023-02-13T07:45:00;1.02;;;0.93;;
10979;SDS011;5543;51.734;8.744;2023-02-13T07:47:32;1.95;;;1.35;;
10979;SDS011;5543;51.734;8.744;2023-02-13T07:50:02;2.30;;;1.33;;
10979;SDS011;5543;51.734;8.744;2023-02-13T07:52:31;3.17;;;1.42;;
10979;SDS011;5543;51.734;8.744;2023-02-13T07:54:59;1.95;;;1.23;;
10979;SDS011;5543;51.734;8.744;2023-02-13T07:57:27;2.33;;;1.25;;
10979;SDS011;5543;51.734;8.744;2023-02-13T07:59:56;2.78;;;1.52;;
10979;SDS011;5543;51.734;8.744;2023-02-13T08:02:24;2.40;;;1.33;;
10979;SDS011;5543;51.734;8.744;2023-02-13T08:04:52;1.98;;;1.10;;
10979;SDS011;5543;51.734;8.744;2023-02-13T08:07:22;2.63;;;1.48;;
10979;SDS011;5543;51.734;8.744;2023-02-13T08:09:50;2.33;;;1.38;;
10979;SDS011;5543;51.734;8.744;2023-02-13T08:12:36;2.05;;;1.45;;
10979;SDS011;5543;51.734;8.744;2023-02-13T08:15:04;2.75;;;1.48;;
10979;SDS011;5543;51.734;8.744;2023-02-13T08:17:34;6.95;;;4.25;;
10979;SDS011;5543;51.734;8.744;2023-02-13T08:20:02;4.22;;;2.58;;
10979;SDS011;5543;51.734;8.744;2023-02-13T08:22:31;1.98;;;1.17;;
10979;SDS011;5543;51.734;8.744;2023-02-13T08:25:00;1.38;;;1.02;;
10979;SDS011;5543;51.734;8.744;2023-02-13T08:27:28;2.35;;;1.00;;
10979;SDS011;5543;51.734;8.744;2023-02-13T08:29:56;1.80;;;1.20;;
10979;SDS011;5543;51.734;8.744;2023-02-13T08:32:25;1.52;;;1.38;;
10979;SDS011;5543;51.734;8.744;2023-02-13T08:34:53;1.42;;;1.20;;
10979;SDS011;5543;51.734;8.744;2023-02-13T08:37:21;5.90;;;1.25;;
10979;SDS011;5543;51.734;8.744;2023-02-13T08:39:52;1.63;;;1.30;;
10979;SDS011;5543;51.734;8.744;2023-02-13T08:42:20;8.50;;;4.05;;
10979;SDS011;5543;51.734;8.744;2023-02-13T08:44:48;2.45;;;1.30;;
10979;SDS011;5543;51.734;8.744;2023-02-13T08:47:16;1.85;;;1.38;;
10979;SDS011;5543;51.734;8.744;2023-02-13T08:49:45;1.95;;;1.23;;
10979;SDS011;5543;51.734;8.744;2023-02-13T08:52:13;2.35;;;1.30;;
10979;SDS011;5543;51.734;8.744;2023-02-13T08:54:41;2.42;;;1.48;;
10979;SDS011;5543;51.734;8.744;2023-02-13T08:57:10;2.10;;;1.30;;
10979;SDS011;5543;51.734;8.744;2023-02-13T08:59:39;2.05;;;1.15;;
10979;SDS011;5543;51.734;8.744;2023-02-13T09:02:08;2.60;;;1.40;;
10979;SDS011;5543;51.734;8.744;2023-02-13T09:04:37;1.83;;;1.23;;
10979;SDS011;5543;51.734;8.744;2023-02-13T09:07:05;1.65;;;1.23;;
10979;SDS011;5543;51.734;8.744;2023-02-13T09:09:33;2.00;;;1.52;;
10979;SDS011;5543;51.734;8.744;2023-02-13T09:12:01;2.50;;;1.30;;
10979;SDS011;5543;51.734;8.744;2023-02-13T09:14:31;2.72;;;1.40;;
10979;SDS011;5543;51.734;8.744;2023-02-13T09:17:00;1.60;;;1.42;;
10979;SDS011;5543;51.734;8.744;2023-02-13T09:19:28;2.90;;;1.40;;
10979;SDS011;5543;51.734;8.744;2023-02-13T09:21:56;2.30;;;1.67;;
10979;SDS011;5543;51.734;8.744;2023-02-13T09:24:25;3.35;;;1.60;;
10979;SDS011;5543;51.734;8.744;2023-02-13T09:26:53;2.28;;;1.35;;
10979;SDS011;5543;51.734;8.744;2023-02-13T09:29:22;5.60;;;4.18;;
10979;SDS011;5543;51.734;8.744;2023-02-13T09:31:52;3.60;;;1.30;;
10979;SDS011;5543;51.734;8.744;2023-02-13T09:34:20;2.03;;;0.93;;
10979;SDS011;5543;51.734;8.744;2023-02-13T09:36:50;2.08;;;1.27;;
10979;SDS011;5543;51.734;8.744;2023-02-13T09:39:19;1.33;;;1.23;;
10979;SDS011;5543;51.734;8.744;2023-02-13T09:41:48;2.10;;;1.00;;
10979;SDS011;5543;51.734;8.744;2023-02-13T09:44:19;1.10;;;1.00;;
10979;SDS011;5543;51.734;8.744;2023-02-13T09:47:03;2.67;;;1.15;;
10979;SDS011;5543;51.734;8.744;2023-02-13T09:49:35;2.20;;;1.50;;
10979;SDS011;5543;51.734;8.744;2023-02-13T09:52:08;1.13;;;0.95;;
10979;SDS011;5543;51.734;8.744;2023-02-13T09:54:39;2.22;;;1.95;;
10979;SDS011;5543;51.734;8.744;2023-02-13T09:57:10;2.53;;;1.08;;
10979;SDS011;5543;51.734;8.744;2023-02-13T09:59:46;1.50;;;1.40;;
10979;SDS011;5543;51.734;8.744;2023-02-13T10:02:28;2.53;;;0.80;;
10979;SDS011;5543;51.734;8.744;2023-02-13T10:05:13;3.15;;;0.77;;
10979;SDS011;5543;51.734;8.744;2023-02-13T10:07:52;1.33;;;1.08;;
10979;SDS011;5543;51.734;8.744;2023-02-13T10:10:27;1.25;;;1.10;;
10979;SDS011;5543;51.734;8.744;2023-02-13T10:13:04;2.10;;;1.10;;
10979;SDS011;5543;51.734;8.744;2023-02-13T10:15:43;2.10;;;1.45;;
10979;SDS011;5543;51.734;8.744;2023-02-13T10:18:20;2.70;;;1.60;;
10979;SDS011;5543;51.734;8.744;2023-02-13T10:20:51;2.55;;;1.40;;
10979;SDS011;5543;51.734;8.744;2023-02-13T10:23:23;2.38;;;1.50;;
10979;SDS011;5543;51.734;8.744;2023-02-13T10:25:55;1.00;;;1.00;;
10979;SDS011;5543;51.734;8.744;2023-02-13T10:28:31;2.47;;;1.60;;
10979;SDS011;5543;51.734;8.744;2023-02-13T10:31:04;2.05;;;1.38;;
10979;SDS011;5543;51.734;8.744;2023-02-13T10:33:37;1.50;;;1.15;;
10979;SDS011;5543;51.734;8.744;2023-02-13T10:36:15;2.25;;;1.42;;
10979;SDS011;5543;51.734;8.744;2023-02-13T10:38:50;2.38;;;1.48;;
10979;SDS011;5543;51.734;8.744;2023-02-13T10:41:23;1.52;;;1.42;;
10979;SDS011;5543;51.734;8.744;2023-02-13T10:44:00;2.22;;;1.17;;
10979;SDS011;5543;51.734;8.744;2023-02-13T10:46:44;3.00;;;1.27;;
10979;SDS011;5543;51.734;8.744;2023-02-13T10:49:26;1.42;;;1.13;;
10979;SDS011;5543;51.734;8.744;2023-02-13T10:52:10;1.42;;;0.93;;
10979;SDS011;5543;51.734;8.744;2023-02-13T10:54:51;2.42;;;1.58;;
10979;SDS011;5543;51.734;8.744;2023-02-13T10:57:31;1.52;;;1.20;;
10979;SDS011;5543;51.734;8.744;2023-02-13T11:00:10;1.98;;;1.75;;
10979;SDS011;5543;51.734;8.744;2023-02-13T11:02:44;1.70;;;1.40;;
10979;SDS011;5543;51.734;8.744;2023-02-13T11:05:16;1.45;;;1.17;;
10979;SDS011;5543;51.734;8.744;2023-02-13T11:07:46;2.20;;;1.65;;
10979;SDS011;5543;51.734;8.744;2023-02-13T11:10:16;1.90;;;1.42;;
10979;SDS011;5543;51.734;8.744;2023-02-13T11:12:46;2.70;;;1.50;;
10979;SDS011;5543;51.734;8.744;2023-02-13T11:15:22;2.25;;;1.38;;
10979;SDS011;5543;51.734;8.744;2023-02-13T11:17:55;1.05;;;0.95;;
10979;SDS011;5543;51.734;8.744;2023-02-13T11:20:29;1.90;;;1.55;;
10979;SDS011;5543;51.734;8.744;2023-02-13T11:23:16;1.27;;;1.17;;
10979;SDS011;5543;51.734;8.744;2023-02-13T11:26:00;1.05;;;0.95;;
10979;SDS011;5543;51.734;8.744;2023-02-13T11:28:30;2.50;;;1.92;;
10979;SDS011;5543;51.734;8.744;2023-02-13T11:31:14;1.33;;;0.98;;
10979;SDS011;5543;51.734;8.744;2023-02-13T11:33:49;1.83;;;1.08;;
10979;SDS011;5543;51.734;8.744;2023-02-13T11:36:23;1.27;;;1.13;;
10979;SDS011;5543;51.734;8.744;2023-02-13T11:38:56;1.83;;;0.98;;
10979;SDS011;5543;51.734;8.744;2023-02-13T11:41:25;1.67;;;1.30;;
10979;SDS011;5543;51.734;8.744;2023-02-13T11:43:56;2.40;;;1.33;;
10979;SDS011;5543;51.734;8.744;2023-02-13T11:46:28;2.58;;;1.80;;
10979;SDS011;5543;51.734;8.744;2023-02-13T11:48:58;1.60;;;1.38;;
10979;SDS011;5543;51.734;8.744;2023-02-13T11:51:39;1.63;;;1.35;;
10979;SDS011;5543;51.734;8.744;2023-02-13T11:54:21;1.38;;;1.25;;
10979;SDS011;5543;51.734;8.744;2023-02-13T11:56:56;1.65;;;1.30;;
10979;SDS011;5543;51.734;8.744;2023-02-13T11:59:31;1.60;;;1.23;;
10979;SDS011;5543;51.734;8.744;2023-02-13T12:02:13;1.95;;;1.60;;
10979;SDS011;5543;51.734;8.744;2023-02-13T12:04:43;1.92;;;1.25;;
10979;SDS011;5543;51.734;8.744;2023-02-13T12:07:14;1.95;;;1.50;;
10979;SDS011;5543;51.734;8.744;2023-02-13T12:09:46;1.50;;;1.40;;
10979;SDS011;5543;51.734;8.744;2023-02-13T12:12:18;3.15;;;1.42;;
10979;SDS011;5543;51.734;8.744;2023-02-13T12:14:52;1.75;;;1.65;;
10979;SDS011;5543;51.734;8.744;2023-02-13T12:17:21;1.95;;;1.42;;
10979;SDS011;5543;51.734;8.744;2023-02-13T12:19:57;1.50;;;1.23;;
10979;SDS011;5543;51.734;8.744;2023-02-13T12:22:31;1.70;;;1.60;;
10979;SDS011;5543;51.734;8.744;2023-02-13T12:25:21;1.60;;;1.50;;
10979;SDS011;5543;51.734;8.744;2023-02-13T12:28:14;2.33;;;1.63;;
10979;SDS011;5543;51.734;8.744;2023-02-13T12:36:54;3.42;;;1.42;;
10979;SDS011;5543;51.734;8.744;2023-02-13T12:39:33;1.75;;;1.33;;
10979;SDS011;5543;51.734;8.744;2023-02-13T12:42:15;2.13;;;1.40;;
10979;SDS011;5543;51.734;8.744;2023-02-13T12:44:58;2.22;;;1.70;;
10979;SDS011;5543;51.734;8.744;2023-02-13T12:47:44;2.30;;;1.58;;
10979;SDS011;5543;51.734;8.744;2023-02-13T12:50:28;2.70;;;1.80;;
10979;SDS011;5543;51.734;8.744;2023-02-13T12:56:04;2.78;;;1.60;;
10979;SDS011;5543;51.734;8.744;2023-02-13T12:58:56;2.03;;;1.48;;
10979;SDS011;5543;51.734;8.744;2023-02-13T13:04:45;2.53;;;1.52;;
10979;SDS011;5543;51.734;8.744;2023-02-13T13:10:35;2.45;;;1.63;;
10979;SDS011;5543;51.734;8.744;2023-02-13T13:13:20;2.33;;;1.70;;
10979;SDS011;5543;51.734;8.744;2023-02-13T13:16:00;3.88;;;2.05;;
10979;SDS011;5543;51.734;8.744;2023-02-13T13:18:37;2.28;;;1.55;;
10979;SDS011;5543;51.734;8.744;2023-02-13T13:21:21;2.88;;;1.65;;
10979;SDS011;5543;51.734;8.744;2023-02-13T13:23:57;1.80;;;1.50;;
10979;SDS011;5543;51.734;8.744;2023-02-13T13:26:31;1.60;;;1.40;;
10979;SDS011;5543;51.734;8.744;2023-02-13T13:29:05;2.55;;;1.52;;
10979;SDS011;5543;51.734;8.744;2023-02-13T13:31:38;2.95;;;1.80;;
10979;SDS011;5543;51.734;8.744;2023-02-13T13:34:10;2.58;;;1.73;;
10979;SDS011;5543;51.734;8.744;2023-02-13T13:36:45;3.25;;;1.70;;
10979;SDS011;5543;51.734;8.744;2023-02-13T13:39:19;2.28;;;1.70;;
10979;SDS011;5543;51.734;8.744;2023-02-13T13:41:59;1.48;;;1.33;;
10979;SDS011;5543;51.734;8.744;2023-02-13T13:47:46;2.15;;;1.73;;
10979;SDS011;5543;51.734;8.744;2023-02-13T13:50:23;2.80;;;1.92;;
10979;SDS011;5543;51.734;8.744;2023-02-13T13:53:07;2.53;;;1.80;;
10979;SDS011;5543;51.734;8.744;2023-02-13T13:58:39;4.25;;;2.35;;
10979;SDS011;5543;51.734;8.744;2023-02-13T14:01:22;3.28;;;1.70;;
10979;SDS011;5543;51.734;8.744;2023-02-13T14:03:53;2.15;;;1.70;;
10979;SDS011;5543;51.734;8.744;2023-02-13T14:06:25;6.53;;;2.03;;
10979;SDS011;5543;51.734;8.744;2023-02-13T14:08:56;2.35;;;1.73;;
10979;SDS011;5543;51.734;8.744;2023-02-13T14:20:22;1.80;;;1.70;;
10979;SDS011;5543;51.734;8.744;2023-02-13T14:23:06;2.25;;;1.85;;
10979;SDS011;5543;51.734;8.744;2023-02-13T14:25:41;2.60;;;1.92;;
10979;SDS011;5543;51.734;8.744;2023-02-13T14:28:14;3.08;;;1.80;;
10979;SDS011;5543;51.734;8.744;2023-02-13T14:30:48;4.50;;;1.75;;
10979;SDS011;5543;51.734;8.744;2023-02-13T14:33:22;3.53;;;1.98;;
10979;SDS011;5543;51.734;8.744;2023-02-13T14:36:01;4.88;;;2.20;;
10979;SDS011;5543;51.734;8.744;2023-02-13T14:38:32;5.93;;;2.33;;
10979;SDS011;5543;51.734;8.744;2023-02-13T14:41:01;4.10;;;2.05;;
10979;SDS011;5543;51.734;8.744;2023-02-13T14:43:33;3.35;;;2.00;;
10979;SDS011;5543;51.734;8.744;2023-02-13T14:46:19;2.92;;;1.83;;
10979;SDS011;5543;51.734;8.744;2023-02-13T14:48:55;3.58;;;2.08;;
10979;SDS011;5543;51.734;8.744;2023-02-13T14:51:30;3.17;;;2.13;;
10979;SDS011;5543;51.734;8.744;2023-02-13T14:54:03;3.40;;;1.70;;
10979;SDS011;5543;51.734;8.744;2023-02-13T14:56:36;13.00;;;7.82;;
10979;SDS011;5543;51.734;8.744;2023-02-13T14:59:09;13.82;;;7.45;;
10979;SDS011;5543;51.734;8.744;2023-02-13T15:01:47;3.33;;;2.20;;
10979;SDS011;5543;51.734;8.744;2023-02-13T15:04:23;5.25;;;2.30;;
10979;SDS011;5543;51.734;8.744;2023-02-13T15:06:58;3.70;;;2.00;;
10979;SDS011;5543;51.734;8.744;2023-02-13T15:09:30;4.60;;;2.70;;
10979;SDS011;5543;51.734;8.744;2023-02-13T15:12:03;3.70;;;2.05;;
10979;SDS011;5543;51.734;8.744;2023-02-13T15:14:49;3.00;;;2.08;;
10979;SDS011;5543;51.734;8.744;2023-02-13T15:17:18;4.05;;;2.08;;
10979;SDS011;5543;51.734;8.744;2023-02-13T15:19:50;4.13;;;2.50;;
10979;SDS011;5543;51.734;8.744;2023-02-13T15:22:24;5.43;;;2.40;;
10979;SDS011;5543;51.734;8.744;2023-02-13T15:24:57;6.90;;;3.28;;
10979;SDS011;5543;51.734;8.744;2023-02-13T15:27:26;3.60;;;1.80;;
10979;SDS011;5543;51.734;8.744;2023-02-13T15:29:58;4.35;;;2.78;;
10979;SDS011;5543;51.734;8.744;2023-02-13T15:32:29;4.22;;;2.72;;
10979;SDS011;5543;51.734;8.744;2023-02-13T15:34:59;4.03;;;2.47;;
10979;SDS011;5543;51.734;8.744;2023-02-13T15:37:29;3.30;;;2.05;;
10979;SDS011;5543;51.734;8.744;2023-02-13T15:40:13;3.25;;;2.33;;
10979;SDS011;5543;51.734;8.744;2023-02-13T15:42:42;4.22;;;2.33;;
10979;SDS011;5543;51.734;8.744;2023-02-13T15:45:15;2.63;;;2.17;;
10979;SDS011;5543;51.734;8.744;2023-02-13T15:47:45;3.33;;;1.90;;
10979;SDS011;5543;51.734;8.744;2023-02-13T15:50:15;3.58;;;2.45;;
10979;SDS011;5543;51.734;8.744;2023-02-13T15:52:46;2.58;;;1.95;;
10979;SDS011;5543;51.734;8.744;2023-02-13T15:55:18;8.55;;;2.70;;
10979;SDS011;5543;51.734;8.744;2023-02-13T15:57:48;2.75;;;2.20;;
10979;SDS011;5543;51.734;8.744;2023-02-13T16:00:19;3.90;;;2.47;;
10979;SDS011;5543;51.734;8.744;2023-02-13T16:02:51;4.25;;;2.78;;
10979;SDS011;5543;51.734;8.744;2023-02-13T16:05:23;5.70;;;2.30;;
10979;SDS011;5543;51.734;8.744;2023-02-13T16:11:16;5.53;;;2.97;;
10979;SDS011;5543;51.734;8.744;2023-02-13T16:14:00;7.30;;;2.85;;